Time;durP1;ratioP1;P1;durP2;ratioP2;P2;SDS_P1;SDS_P2;PMS_P1;PMS_P2;Temp;Humidity;BMP_temperature;BMP_pressure;BME280_temperature;BME280_humidity;BME280_pressure;Samples;Min_cycle;Max_cycle;Signal;HPM_P1;HPM_P2
2021/05/16 00:01:56;;;;;;;19.42;3.50;;;;;;;9.38;74.05;98254.03;5069813;28;20033;-69
2021/05/16 00:04:22;;;;;;;15.23;5.05;;;;;;;9.39;74.47;98252.22;5069281;28;20033;-70
2021/05/16 00:06:47;;;;;;;13.13;4.13;;;;;;;9.38;74.22;98247.94;5071394;28;20111;-69
2021/05/16 00:09:12;;;;;;;16.83;3.95;;;;;;;9.35;73.92;98251.63;5074491;28;20098;-70
2021/05/16 00:11:38;;;;;;;16.88;3.75;;;;;;;9.32;74.56;98253.59;5071537;28;20438;-68
2021/05/16 00:14:03;;;;;;;16.48;4.47;;;;;;;9.35;74.57;98250.75;5069087;28;20033;-68
2021/05/16 00:16:29;;;;;;;11.90;3.47;;;;;;;9.34;74.74;98249.91;5069017;28;20538;-68
2021/05/16 00:18:54;;;;;;;14.32;4.57;;;;;;;9.34;74.49;98255.19;5068836;28;20693;-69
2021/05/16 00:21:20;;;;;;;12.82;3.58;;;;;;;9.33;74.45;98250.00;5068906;28;20411;-71
2021/05/16 00:23:45;;;;;;;11.75;3.85;;;;;;;9.32;74.67;98259.69;5068981;28;20029;-70
2021/05/16 00:26:10;;;;;;;13.82;4.15;;;;;;;9.30;74.58;98250.22;5069241;28;20456;-70
2021/05/16 00:28:36;;;;;;;14.15;5.32;;;;;;;9.29;74.25;98246.75;5069053;28;20036;-71
2021/05/16 00:31:01;;;;;;;14.32;4.85;;;;;;;9.30;74.79;98250.22;5068803;28;20087;-68
2021/05/16 00:33:27;;;;;;;12.18;3.28;;;;;;;9.28;75.04;98241.59;5075929;28;20028;-69
2021/05/16 00:35:52;;;;;;;13.55;3.80;;;;;;;9.27;75.19;98245.19;5088222;28;20052;-70
2021/05/16 00:38:18;;;;;;;21.65;5.13;;;;;;;9.26;75.38;98244.34;5088684;28;20511;-68
2021/05/16 00:40:44;;;;;;;16.02;4.68;;;;;;;9.21;74.88;98254.34;5088992;28;20514;-69
2021/05/16 00:43:10;;;;;;;14.07;4.47;;;;;;;9.19;75.13;98249.19;5089291;28;20032;-68
2021/05/16 00:45:35;;;;;;;19.02;3.65;;;;;;;9.20;75.63;98256.09;5070692;28;20039;-69
2021/05/16 00:48:03;;;;;;;15.88;3.55;;;;;;;9.22;74.99;98250.75;5088572;28;20044;-69
2021/05/16 00:50:41;;;;;;;8.23;2.97;;;;;;;9.20;75.13;98250.00;5091991;28;20044;-70
2021/05/16 00:53:08;;;;;;;12.43;4.40;;;;;;;9.21;75.50;98244.66;5092310;28;20455;-69
2021/05/16 00:55:33;;;;;;;12.10;3.05;;;;;;;9.24;75.51;98251.50;5089544;28;20135;-68
2021/05/16 00:57:59;;;;;;;8.27;3.25;;;;;;;9.20;75.17;98244.75;5082641;28;20032;-70
2021/05/16 01:00:39;;;;;;;15.05;4.18;;;;;;;9.21;74.93;98242.03;5072558;28;20039;-68
2021/05/16 01:03:05;;;;;;;9.23;3.08;;;;;;;9.20;75.08;98242.97;5092415;28;20510;-68
2021/05/16 01:05:30;;;;;;;10.43;3.35;;;;;;;9.15;75.72;98247.69;5092327;28;20032;-70
2021/05/16 01:07:56;;;;;;;14.80;3.35;;;;;;;9.16;75.11;98246.78;5092013;28;20104;-69
2021/05/16 01:10:21;;;;;;;14.20;3.47;;;;;;;9.17;75.27;98239.72;5063120;28;20032;-70
2021/05/16 01:12:49;;;;;;;7.35;3.00;;;;;;;9.13;75.10;98239.09;5072302;28;20036;-71
2021/05/16 01:15:18;;;;;;;8.82;3.55;;;;;;;9.12;75.90;98242.66;5071781;28;20035;-69
2021/05/16 01:17:45;;;;;;;12.57;3.17;;;;;;;9.13;75.46;98249.63;5071883;28;20028;-72
2021/05/16 01:20:14;;;;;;;13.25;4.20;;;;;;;9.11;75.93;98246.25;5053481;28;20033;-70
2021/05/16 01:22:40;;;;;;;14.15;3.65;;;;;;;9.09;75.48;98247.28;5051831;28;20040;-70
2021/05/16 01:25:07;;;;;;;14.77;2.90;;;;;;;9.09;75.92;98245.50;5051386;28;20036;-69
2021/05/16 01:27:32;;;;;;;5.68;2.58;;;;;;;9.12;75.39;98241.81;5051371;28;20171;-71
2021/05/16 01:29:58;;;;;;;11.95;3.85;;;;;;;9.08;76.01;98242.97;5051823;28;20483;-71
2021/05/16 01:32:24;;;;;;;7.22;2.70;;;;;;;9.09;75.70;98242.88;5052006;28;20116;-69
2021/05/16 01:34:50;;;;;;;12.77;2.83;;;;;;;9.08;76.03;98235.94;5053184;28;20043;-69
2021/05/16 01:37:17;;;;;;;6.72;3.22;;;;;;;9.08;75.75;98248.22;5054483;28;20405;-70
2021/05/16 01:39:45;;;;;;;9.10;3.17;;;;;;;9.04;75.99;98234.47;5076683;28;20035;-70
2021/05/16 01:42:11;;;;;;;11.63;3.20;;;;;;;9.03;76.24;98236.25;5092007;28;20062;-69
2021/05/16 01:44:38;;;;;;;6.72;3.00;;;;;;;9.02;76.06;98237.19;5091387;28;20094;-69
2021/05/16 01:47:04;;;;;;;11.57;3.55;;;;;;;8.99;76.53;98233.94;5090999;28;20060;-70
2021/05/16 01:49:40;;;;;;;10.85;3.90;;;;;;;8.95;76.33;98235.91;5073149;28;20032;-70
2021/05/16 01:52:05;;;;;;;13.80;2.72;;;;;;;8.93;76.19;98229.06;5091382;28;20036;-70
2021/05/16 01:54:31;;;;;;;5.55;2.55;;;;;;;8.94;76.84;98233.41;5091319;28;20110;-70
2021/05/16 01:56:57;;;;;;;11.93;3.45;;;;;;;8.94;76.73;98241.28;5084358;28;20476;-70
2021/05/16 01:59:23;;;;;;;9.55;3.47;;;;;;;8.95;76.50;98235.91;5070818;28;20029;-69
2021/05/16 02:01:48;;;;;;;15.50;4.68;;;;;;;8.94;76.52;98234.25;5070729;28;20033;-69
2021/05/16 02:04:14;;;;;;;9.45;2.75;;;;;;;8.95;76.86;98229.81;5070781;28;20059;-70
2021/05/16 02:06:40;;;;;;;13.57;3.22;;;;;;;8.96;76.63;98227.09;5070738;28;20040;-71
2021/05/16 02:09:06;;;;;;;8.43;2.47;;;;;;;8.99;76.64;98226.03;5071207;28;20047;-71
2021/05/16 02:11:31;;;;;;;9.85;3.08;;;;;;;9.01;76.58;98224.16;5070767;28;20025;-71
2021/05/16 02:13:57;;;;;;;11.98;2.85;;;;;;;9.01;76.86;98225.00;5070672;28;20127;-71
2021/05/16 02:16:22;;;;;;;7.75;3.13;;;;;;;8.99;76.56;98220.78;5070027;28;20113;-70
2021/05/16 02:18:47;;;;;;;11.75;3.15;;;;;;;8.99;76.79;98219.00;5063975;28;20047;-70
2021/05/16 02:21:13;;;;;;;8.70;2.67;;;;;;;8.98;76.93;98216.47;5050878;28;20044;-71
2021/05/16 02:23:40;;;;;;;9.80;3.28;;;;;;;8.97;76.95;98220.03;5049917;28;20029;-70
2021/05/16 02:26:06;;;;;;;8.20;2.90;;;;;;;8.95;76.97;98220.13;5050396;28;20441;-70
2021/05/16 02:28:31;;;;;;;11.63;3.05;;;;;;;8.94;77.08;98225.53;5050431;28;20067;-71
2021/05/16 02:30:57;;;;;;;14.95;3.50;;;;;;;8.94;77.20;98218.47;5050614;28;20037;-71
2021/05/16 02:33:23;;;;;;;11.65;3.33;;;;;;;8.93;77.39;98222.03;5050725;28;20033;-70
2021/05/16 02:35:48;;;;;;;11.80;5.38;;;;;;;8.95;77.52;98220.13;5049603;28;20036;-70
2021/05/16 02:38:13;;;;;;;11.55;4.35;;;;;;;8.94;77.02;98221.09;5050533;28;20079;-70
2021/05/16 02:40:39;;;;;;;7.88;3.25;;;;;;;8.94;77.03;98223.72;5050285;28;20037;-71
2021/05/16 02:43:04;;;;;;;13.93;3.65;;;;;;;8.92;77.24;98217.72;5049979;28;20041;-71
2021/05/16 02:45:29;;;;;;;15.43;4.10;;;;;;;8.90;77.58;98218.78;5049758;28;20377;-71
2021/05/16 02:47:55;;;;;;;13.20;4.07;;;;;;;8.91;77.32;98212.56;5032184;28;20633;-70
2021/05/16 02:50:20;;;;;;;13.77;3.58;;;;;;;8.90;77.61;98218.78;5050638;28;20029;-69
2021/05/16 02:52:46;;;;;;;12.77;5.13;;;;;;;8.90;77.65;98216.16;5050200;28;20032;-70
2021/05/16 02:55:11;;;;;;;9.13;3.28;;;;;;;8.94;77.71;98222.88;5065641;28;20096;-70
2021/05/16 02:57:37;;;;;;;11.95;3.70;;;;;;;8.96;77.66;98221.84;5090011;28;20106;-70
2021/05/16 03:00:07;;;;;;;14.48;4.00;;;;;;;9.00;77.77;98220.66;5090046;28;20515;-70
2021/05/16 03:02:32;;;;;;;7.88;3.72;;;;;;;8.98;77.56;98214.69;5071841;28;20089;-69
2021/05/16 03:04:57;;;;;;;17.42;4.85;;;;;;;8.98;77.25;98219.09;5089875;28;20123;-70
2021/05/16 03:07:23;;;;;;;11.60;4.47;;;;;;;8.98;77.73;98213.84;5089489;28;20042;-69
2021/05/16 03:09:48;;;;;;;14.25;3.80;;;;;;;8.99;77.67;98215.53;5090053;28;20035;-70
2021/05/16 03:12:14;;;;;;;8.60;4.07;;;;;;;8.98;77.96;98216.47;5089000;28;20032;-69
2021/05/16 03:14:39;;;;;;;12.98;3.70;;;;;;;9.00;77.65;98217.19;5089515;28;20070;-70
2021/05/16 03:17:05;;;;;;;14.75;4.68;;;;;;;9.01;77.78;98211.00;5071781;28;20029;-70
2021/05/16 03:19:31;;;;;;;11.48;4.82;;;;;;;9.00;77.21;98210.16;5051546;28;20369;-70
2021/05/16 03:21:59;;;;;;;10.63;4.10;;;;;;;8.97;77.76;98206.91;5069567;28;20093;-72
2021/05/16 03:24:24;;;;;;;21.00;6.57;;;;;;;8.96;77.98;98210.50;5069110;28;20581;-72
2021/05/16 03:26:50;;;;;;;15.45;4.57;;;;;;;8.97;77.68;98212.16;5069549;28;20036;-72
2021/05/16 03:29:15;;;;;;;17.33;4.75;;;;;;;8.96;77.80;98216.59;5069358;28;20032;-70
2021/05/16 03:31:40;;;;;;;8.68;3.13;;;;;;;8.98;77.88;98216.47;5069462;28;20132;-71
2021/05/16 03:34:07;;;;;;;13.30;4.15;;;;;;;9.00;77.63;98215.41;5069169;28;20522;-71
2021/05/16 03:36:33;;;;;;;19.40;4.35;;;;;;;9.01;77.29;98211.00;5069186;28;20032;-71
2021/05/16 03:38:59;;;;;;;9.40;3.60;;;;;;;9.01;77.52;98209.22;5069383;28;20048;-71
2021/05/16 03:41:24;;;;;;;12.50;4.13;;;;;;;9.03;77.80;98216.97;5069146;28;20103;-71
2021/05/16 03:43:50;;;;;;;10.98;3.65;;;;;;;9.06;77.44;98214.16;5069574;28;20094;-71
2021/05/16 03:46:17;;;;;;;16.38;6.70;;;;;;;9.08;77.21;98217.53;5068785;28;20058;-70
2021/05/16 03:48:42;;;;;;;8.43;4.05;;;;;;;9.13;77.20;98219.81;5068769;28;20036;-71
2021/05/16 03:51:10;;;;;;;19.38;4.05;;;;;;;9.19;77.31;98216.78;5068784;28;20047;-71
2021/05/16 03:53:37;;;;;;;10.80;3.67;;;;;;;9.22;76.70;98221.84;5069028;28;20059;-71
2021/05/16 03:56:02;;;;;;;11.52;4.68;;;;;;;9.30;76.96;98219.50;5068817;28;20033;-70
2021/05/16 03:58:28;;;;;;;9.15;3.92;;;;;;;9.32;76.28;98216.78;5069185;28;20042;-69
2021/05/16 04:00:53;;;;;;;14.23;4.03;;;;;;;9.36;75.91;98215.63;5068942;28;20071;-69
2021/05/16 04:03:19;;;;;;;7.38;3.63;;;;;;;9.42;76.18;98221.28;5068953;28;20400;-70
2021/05/16 04:05:44;;;;;;;12.90;5.55;;;;;;;9.48;75.61;98214.78;5068693;28;20380;-69
2021/05/16 04:08:09;;;;;;;10.02;2.88;;;;;;;9.54;75.67;98219.59;5068705;28;20119;-69
2021/05/16 04:10:34;;;;;;;8.55;3.13;;;;;;;9.58;76.09;98220.25;5048367;28;20029;-69
2021/05/16 04:13:00;;;;;;;7.90;3.30;;;;;;;9.60;75.70;98220.97;5069038;28;20578;-69
2021/05/16 04:15:25;;;;;;;12.07;4.70;;;;;;;9.62;75.19;98213.78;5068843;28;20458;-69
2021/05/16 04:17:51;;;;;;;11.50;4.80;;;;;;;9.66;74.84;98221.38;5068963;28;20037;-70
2021/05/16 04:20:16;;;;;;;11.07;3.75;;;;;;;9.67;75.31;98216.94;5069395;28;20044;-70
2021/05/16 04:22:42;;;;;;;12.00;4.72;;;;;;;9.68;75.24;98227.38;5069032;28;20029;-70
2021/05/16 04:25:08;;;;;;;10.63;3.65;;;;;;;9.74;74.86;98223.44;5071285;28;20036;-70
2021/05/16 04:27:33;;;;;;;12.05;3.38;;;;;;;9.82;74.84;98222.91;5072709;28;20112;-70
2021/05/16 04:29:58;;;;;;;10.48;3.35;;;;;;;9.86;74.32;98227.00;5072315;28;20047;-69
2021/05/16 04:32:24;;;;;;;8.70;2.92;;;;;;;9.88;74.53;98231.22;5072787;28;20504;-70
2021/05/16 04:34:49;;;;;;;9.38;3.38;;;;;;;9.93;74.88;98233.50;5092981;28;20048;-70
2021/05/16 04:37:14;;;;;;;11.65;3.83;;;;;;;9.93;74.19;98237.94;5092914;28;20024;-69
2021/05/16 04:39:40;;;;;;;7.43;3.72;;;;;;;9.94;74.69;98240.44;5092752;28;20058;-69
2021/05/16 04:42:05;;;;;;;8.80;3.50;;;;;;;10.03;74.20;98239.81;5092870;28;20036;-69
2021/05/16 04:44:31;;;;;;;13.13;3.42;;;;;;;10.07;74.60;98233.38;5092730;28;20032;-69
2021/05/16 04:46:56;;;;;;;12.30;4.03;;;;;;;10.05;73.81;98237.91;5092770;28;20047;-70
2021/05/16 04:49:22;;;;;;;7.80;3.75;;;;;;;10.04;73.71;98236.22;5093159;28;20042;-70
2021/05/16 04:51:47;;;;;;;6.07;2.88;;;;;;;10.07;74.43;98237.81;5093334;28;20040;-71
2021/05/16 04:54:12;;;;;;;7.90;3.00;;;;;;;10.14;74.67;98240.81;5092844;28;20075;-69
2021/05/16 04:56:38;;;;;;;13.27;4.07;;;;;;;10.14;74.65;98244.31;5092287;28;20111;-69
2021/05/16 04:59:03;;;;;;;25.27;9.35;;;;;;;10.12;74.61;98242.75;5093038;28;20032;-69
2021/05/16 05:01:29;;;;;;;10.45;3.15;;;;;;;10.12;75.21;98246.22;5092443;28;20066;-69
2021/05/16 05:03:56;;;;;;;12.32;4.55;;;;;;;10.14;76.00;98251.34;5092607;28;20047;-68
2021/05/16 05:06:22;;;;;;;12.60;4.82;;;;;;;10.08;76.16;98263.16;5092203;28;20050;-68
2021/05/16 05:08:48;;;;;;;11.57;4.05;;;;;;;10.04;76.82;98264.31;5092891;28;20117;-70
2021/05/16 05:11:13;;;;;;;11.50;3.80;;;;;;;10.03;77.02;98265.28;5092524;28;20047;-70
2021/05/16 05:13:39;;;;;;;9.77;3.95;;;;;;;10.03;76.90;98273.19;5092542;28;20024;-70
2021/05/16 05:16:04;;;;;;;8.02;4.25;;;;;;;9.97;77.72;98274.47;5092273;28;20507;-69
2021/05/16 05:18:32;;;;;;;9.63;4.18;;;;;;;9.93;78.13;98270.38;5087936;28;20028;-70
2021/05/16 05:20:57;;;;;;;16.10;4.18;;;;;;;9.89;77.69;98263.63;5072344;28;20116;-70
2021/05/16 05:23:23;;;;;;;14.93;4.45;;;;;;;9.80;77.76;98273.03;5071887;28;20174;-70
2021/05/16 05:25:49;;;;;;;9.98;3.55;;;;;;;9.79;77.41;98270.50;5084604;28;20047;-69
2021/05/16 05:28:17;;;;;;;7.45;3.22;;;;;;;9.78;78.23;98274.94;5091988;28;20040;-70
2021/05/16 05:30:42;;;;;;;6.47;3.33;;;;;;;9.80;78.56;98266.94;5092180;28;20107;-69
2021/05/16 05:33:08;;;;;;;12.05;3.25;;;;;;;9.80;77.98;98264.31;5092063;28;20078;-70
2021/05/16 05:35:33;;;;;;;11.15;4.35;;;;;;;9.78;77.81;98272.28;5090766;28;20036;-70
2021/05/16 05:37:58;;;;;;;9.98;3.38;;;;;;;9.74;77.50;98267.34;5091924;28;20040;-70
2021/05/16 05:40:24;;;;;;;8.13;3.45;;;;;;;9.75;77.74;98272.50;5092011;28;20032;-70
2021/05/16 05:42:49;;;;;;;10.55;3.55;;;;;;;9.77;78.69;98269.75;5093308;28;20036;-70
2021/05/16 05:45:14;;;;;;;6.97;2.63;;;;;;;9.82;77.97;98267.63;5092032;28;20047;-70
2021/05/16 05:47:41;;;;;;;7.93;3.25;;;;;;;9.84;77.21;98271.00;5092313;28;20052;-70
2021/05/16 05:50:07;;;;;;;11.73;2.90;;;;;;;9.81;77.50;98272.06;5092405;28;20032;-69
2021/05/16 05:52:32;;;;;;;8.63;3.50;;;;;;;9.82;77.86;98273.78;5091305;28;20127;-70
2021/05/16 05:54:58;;;;;;;7.97;3.70;;;;;;;9.83;77.37;98269.34;5071453;28;20116;-70
2021/05/16 05:57:23;;;;;;;6.50;3.42;;;;;;;9.82;76.79;98268.50;5071193;28;20033;-70
2021/05/16 05:59:48;;;;;;;11.63;3.30;;;;;;;9.84;78.01;98263.13;5072144;28;20040;-70
2021/05/16 06:02:14;;;;;;;6.68;2.60;;;;;;;9.86;77.60;98261.22;5071294;28;20036;-70
2021/05/16 06:04:39;;;;;;;8.38;3.22;;;;;;;9.85;77.36;98267.44;5071387;28;20039;-70
2021/05/16 06:07:06;;;;;;;7.97;2.78;;;;;;;9.86;77.64;98277.00;5071019;28;20073;-70
2021/05/16 06:09:32;;;;;;;10.30;3.50;;;;;;;9.83;78.04;98282.50;5071107;28;20116;-71
2021/05/16 06:11:57;;;;;;;6.00;2.72;;;;;;;9.85;78.24;98278.81;5071243;28;20106;-70
2021/05/16 06:14:23;;;;;;;10.10;3.40;;;;;;;9.88;78.21;98285.66;5070978;28;20480;-70
2021/05/16 06:16:48;;;;;;;6.30;3.60;;;;;;;9.94;77.47;98277.31;5071220;28;20044;-70
2021/05/16 06:19:13;;;;;;;8.82;3.13;;;;;;;9.97;78.20;98279.75;5070821;28;20081;-71
2021/05/16 06:21:39;;;;;;;8.13;2.85;;;;;;;10.00;77.67;98283.94;5070998;28;20024;-70
2021/05/16 06:24:12;;;;;;;13.88;4.70;;;;;;;10.05;77.53;98280.03;5070353;28;20092;-70
2021/05/16 06:26:41;;;;;;;7.32;3.13;;;;;;;10.00;77.87;98279.53;5070839;28;20032;-70
2021/05/16 06:29:08;;;;;;;8.60;3.25;;;;;;;10.04;77.08;98278.34;5070837;28;20043;-70
2021/05/16 06:31:34;;;;;;;16.67;3.35;;;;;;;10.07;77.92;98282.56;5070856;28;20032;-70
2021/05/16 06:33:59;;;;;;;12.75;3.90;;;;;;;10.15;77.04;98290.75;5070540;28;20079;-70
2021/05/16 06:36:25;;;;;;;10.05;3.72;;;;;;;10.21;76.60;98289.47;5079905;28;20107;-71
2021/05/16 06:38:51;;;;;;;6.30;3.13;;;;;;;10.20;76.17;98293.88;5090956;28;20036;-70
2021/05/16 06:41:17;;;;;;;6.75;2.70;;;;;;;10.22;76.92;98294.63;5090830;28;20135;-70
2021/05/16 06:43:42;;;;;;;7.82;2.45;;;;;;;10.27;76.42;98294.31;5090508;28;20040;-71
2021/05/16 06:46:08;;;;;;;4.38;2.10;;;;;;;10.26;75.77;98289.97;5090375;28;20028;-70
2021/05/16 06:48:35;;;;;;;8.25;2.72;;;;;;;10.27;76.33;98296.94;5090367;28;20040;-69
2021/05/16 06:51:02;;;;;;;9.55;3.50;;;;;;;10.27;76.34;98291.66;5090614;28;20032;-71
2021/05/16 06:53:27;;;;;;;6.05;2.53;;;;;;;10.30;76.33;98302.00;5090887;28;20399;-69
2021/05/16 06:55:53;;;;;;;4.03;2.08;;;;;;;10.35;76.36;98301.69;5090878;28;20036;-70
2021/05/16 06:58:18;;;;;;;6.68;2.88;;;;;;;10.40;76.14;98303.03;5091053;28;20527;-70
2021/05/16 07:00:44;;;;;;;8.40;3.83;;;;;;;10.37;74.84;98305.06;5091065;28;20404;-70
2021/05/16 07:03:09;;;;;;;3.55;2.00;;;;;;;10.42;75.58;98306.38;5073665;28;20050;-69
2021/05/16 07:05:35;;;;;;;7.35;2.00;;;;;;;10.46;75.60;98305.22;5091980;28;20020;-69
2021/05/16 07:08:00;;;;;;;7.85;3.50;;;;;;;10.48;75.35;98313.00;5092254;28;20121;-70
2021/05/16 07:10:25;;;;;;;6.47;2.92;;;;;;;10.66;75.35;98305.56;5090427;28;20111;-70
2021/05/16 07:12:51;;;;;;;8.23;2.60;;;;;;;10.76;74.12;98303.94;5091087;28;20491;-70
2021/05/16 07:15:17;;;;;;;12.43;2.72;;;;;;;10.99;74.57;98304.03;5090599;28;20093;-69
2021/05/16 07:17:43;;;;;;;9.90;3.00;;;;;;;11.13;73.44;98306.47;5070250;28;20024;-70
2021/05/16 07:20:09;;;;;;;4.55;2.25;;;;;;;11.22;73.07;98308.38;5070221;28;20112;-70
2021/05/16 07:22:34;;;;;;;7.60;2.88;;;;;;;11.33;73.88;98305.78;5070485;28;20111;-71
2021/05/16 07:25:00;;;;;;;8.98;2.97;;;;;;;11.46;73.04;98308.31;5070751;28;20079;-69
2021/05/16 07:27:25;;;;;;;7.07;3.15;;;;;;;11.66;71.57;98305.94;5070441;28;20045;-69
2021/05/16 07:29:51;;;;;;;7.43;3.00;;;;;;;11.68;71.16;98310.16;5053656;28;20032;-69
2021/05/16 07:32:17;;;;;;;6.63;2.70;;;;;;;11.66;70.33;98303.31;5071258;28;20040;-70
2021/05/16 07:34:42;;;;;;;6.97;3.22;;;;;;;12.34;68.10;98307.63;5085092;28;20032;-71
2021/05/16 07:37:08;;;;;;;7.68;3.25;;;;;;;13.26;65.78;98296.59;5084382;28;20035;-71
2021/05/16 07:39:34;;;;;;;6.47;2.15;;;;;;;13.35;65.51;98298.50;5083179;28;20112;-70
2021/05/16 07:41:59;;;;;;;6.20;3.03;;;;;;;13.87;63.05;98298.50;5075475;28;20072;-71
2021/05/16 07:44:25;;;;;;;9.65;3.30;;;;;;;13.66;63.13;98296.72;5076645;28;20031;-71
2021/05/16 07:46:50;;;;;;;8.23;2.75;;;;;;;13.61;63.21;98309.53;5076515;28;20047;-70
2021/05/16 07:49:16;;;;;;;8.30;3.03;;;;;;;13.26;64.12;98304.53;5040527;28;20119;-68
2021/05/16 07:51:41;;;;;;;8.60;3.63;;;;;;;13.03;64.84;98301.16;5071244;28;20036;-68
2021/05/16 07:54:07;;;;;;;6.47;3.25;;;;;;;13.04;65.17;98308.13;5070753;28;20124;-70
2021/05/16 07:56:33;;;;;;;13.32;3.35;;;;;;;13.15;64.15;98299.31;5070113;28;20066;-71
2021/05/16 07:58:58;;;;;;;10.40;3.42;;;;;;;13.13;65.53;98302.06;5069344;28;20059;-70
2021/05/16 08:01:23;;;;;;;10.55;3.78;;;;;;;13.00;65.73;98293.50;5052807;28;20373;-70
2021/05/16 08:03:49;;;;;;;10.65;3.40;;;;;;;13.53;63.03;98301.38;5070574;28;20400;-69
2021/05/16 08:06:14;;;;;;;9.27;3.05;;;;;;;14.84;60.25;98300.56;5070186;28;20222;-70
2021/05/16 08:08:40;;;;;;;12.75;3.90;;;;;;;15.59;55.54;98293.63;5069431;28;20116;-70
2021/05/16 08:11:05;;;;;;;10.27;4.25;;;;;;;15.24;56.73;98292.44;5069690;28;20087;-70
2021/05/16 08:13:30;;;;;;;11.05;2.95;;;;;;;14.82;56.94;98288.28;5069303;28;20029;-71
2021/05/16 08:15:56;;;;;;;10.77;2.97;;;;;;;14.45;58.11;98287.22;5049811;28;20036;-71
2021/05/16 08:18:21;;;;;;;10.55;3.55;;;;;;;14.99;56.82;98289.41;5048258;28;20449;-70
2021/05/16 08:20:47;;;;;;;15.00;3.78;;;;;;;15.37;53.90;98284.19;5049308;28;20047;-70
2021/05/16 08:23:12;;;;;;;8.30;3.75;;;;;;;15.79;51.10;98283.81;5031536;28;20053;-71
2021/05/16 08:25:39;;;;;;;6.95;3.25;;;;;;;16.18;50.18;98281.81;5048868;28;20029;-70
2021/05/16 08:28:05;;;;;;;8.50;3.90;;;;;;;16.31;48.89;98282.28;5049450;28;20124;-71
2021/05/16 08:30:30;;;;;;;6.13;2.83;;;;;;;16.76;49.56;98288.59;5048883;28;20048;-71
2021/05/16 08:32:56;;;;;;;9.00;3.95;;;;;;;16.98;46.95;98279.31;5048888;28;20029;-71
2021/05/16 08:35:21;;;;;;;9.23;3.67;;;;;;;16.86;48.07;98278.75;5048706;28;20124;-71
2021/05/16 08:37:47;;;;;;;6.95;3.25;;;;;;;16.37;49.29;98277.38;5048363;28;20072;-71
2021/05/16 08:40:14;;;;;;;9.55;4.18;;;;;;;15.97;51.56;98276.72;5048197;28;20037;-71
2021/05/16 08:42:40;;;;;;;10.18;3.42;;;;;;;15.75;50.38;98274.44;5048510;28;20055;-68
2021/05/16 08:45:09;;;;;;;8.10;3.20;;;;;;;16.23;49.69;98279.53;5048344;28;20029;-70
2021/05/16 08:47:35;;;;;;;7.75;2.97;;;;;;;15.59;51.71;98269.72;5048128;28;20026;-70
2021/05/16 08:50:00;;;;;;;8.18;2.92;;;;;;;15.42;52.19;98272.13;5048536;28;20063;-71
2021/05/16 08:52:26;;;;;;;8.43;2.63;;;;;;;15.10;53.00;98283.09;5048576;28;20036;-70
2021/05/16 08:54:55;;;;;;;6.68;3.85;;;;;;;14.86;53.92;98278.22;5031364;28;20036;-70
2021/05/16 08:57:20;;;;;;;11.80;2.83;;;;;;;15.19;52.74;98271.63;5087676;28;20437;-71
2021/05/16 09:00:04;;;;;;;9.20;3.10;;;;;;;14.98;53.46;98281.56;5089331;28;20147;-70
2021/05/16 09:02:29;;;;;;;11.07;3.30;;;;;;;14.72;54.80;98274.19;5089069;28;20652;-70
2021/05/16 09:04:55;;;;;;;10.38;4.32;;;;;;;15.63;51.73;98268.47;5089545;28;20036;-69
2021/05/16 09:07:31;;;;;;;7.47;2.90;;;;;;;16.35;47.11;98263.41;5088487;28;20564;-71
2021/05/16 09:09:57;;;;;;;6.97;3.25;;;;;;;16.99;45.30;98266.88;5088904;28;20530;-70
2021/05/16 09:12:23;;;;;;;11.98;3.55;;;;;;;17.68;44.14;98267.84;5092771;28;20055;-71
2021/05/16 09:15:00;;;;;;;9.95;2.50;;;;;;;18.00;42.34;98264.53;5092124;28;20032;-71
2021/05/16 09:17:25;;;;;;;7.57;3.33;;;;;;;18.40;42.40;98255.84;5092131;28;20464;-71
2021/05/16 09:19:52;;;;;;;6.57;2.30;;;;;;;18.32;41.67;98265.66;5076490;28;20048;-71
2021/05/16 09:22:40;;;;;;;6.88;3.20;;;;;;;18.96;39.01;98271.31;5054499;28;20147;-71
2021/05/16 09:25:13;;;;;;;5.97;2.58;;;;;;;18.79;39.48;98265.13;5071428;28;20094;-69
2021/05/16 09:27:40;;;;;;;6.78;3.10;;;;;;;19.29;38.13;98254.25;5071551;28;20033;-70
2021/05/16 09:30:15;;;;;;;8.52;3.67;;;;;;;20.15;37.74;98263.41;5071992;28;20115;-70
2021/05/16 09:32:47;;;;;;;10.68;3.15;;;;;;;20.71;36.76;98254.44;5071759;28;20036;-71
2021/05/16 09:35:13;;;;;;;7.55;3.40;;;;;;;21.00;36.05;98253.75;5071289;28;20040;-71
2021/05/16 09:38:00;;;;;;;8.20;3.80;;;;;;;21.91;35.01;98253.72;5071595;28;20391;-69
2021/05/16 09:40:27;;;;;;;6.18;2.60;;;;;;;19.91;37.79;98258.16;5071710;28;20029;-70
2021/05/16 09:43:06;;;;;;;7.00;2.40;;;;;;;19.98;37.13;98245.75;5071865;28;20052;-70
2021/05/16 09:45:47;;;;;;;7.20;2.63;;;;;;;19.48;38.55;98255.75;5071230;28;20033;-70
2021/05/16 09:48:29;;;;;;;8.00;3.47;;;;;;;19.63;37.88;98245.19;5071206;28;20060;-71
2021/05/16 09:51:10;;;;;;;4.55;2.88;;;;;;;21.01;35.94;98233.97;5071514;28;20105;-70
2021/05/16 09:53:52;;;;;;;7.80;3.35;;;;;;;22.01;32.95;98230.94;5060340;28;20488;-72
2021/05/16 09:56:24;;;;;;;8.07;3.92;;;;;;;22.75;32.31;98223.75;5070839;28;20037;-71
2021/05/16 09:58:53;;;;;;;8.23;4.32;;;;;;;22.30;32.52;98223.91;5070035;28;20060;-69
2021/05/16 10:01:20;;;;;;;7.40;2.47;;;;;;;21.54;33.71;98213.38;5052549;28;20040;-69
2021/05/16 10:03:50;;;;;;;8.52;2.78;;;;;;;20.58;35.25;98217.56;5070997;28;20695;-71
2021/05/16 10:06:17;;;;;;;6.88;2.53;;;;;;;19.65;35.72;98220.97;5070610;28;20032;-70
2021/05/16 10:08:46;;;;;;;6.03;2.22;;;;;;;19.50;36.92;98218.16;5070919;28;20047;-70
2021/05/16 10:11:13;;;;;;;10.18;2.72;;;;;;;19.36;36.77;98211.66;5071033;28;20028;-70
2021/05/16 10:13:52;;;;;;;4.85;2.13;;;;;;;18.90;38.52;98210.53;5079054;28;20407;-69
2021/05/16 10:16:20;;;;;;;7.05;2.40;;;;;;;18.38;39.46;98203.63;5090647;28;20036;-69
2021/05/16 10:18:47;;;;;;;11.35;3.95;;;;;;;18.27;39.90;98210.13;5084225;28;20120;-72
2021/05/16 10:21:13;;;;;;;11.40;3.28;;;;;;;18.10;42.02;98197.75;5070241;28;20066;-70
2021/05/16 10:23:40;;;;;;;8.98;3.47;;;;;;;17.59;43.07;98211.00;5068989;28;20036;-70
2021/05/16 10:26:20;;;;;;;8.07;2.70;;;;;;;17.16;43.70;98208.25;5069950;28;20031;-69
2021/05/16 10:28:58;;;;;;;8.20;2.50;;;;;;;16.81;46.20;98209.16;5070588;28;20062;-71
2021/05/16 10:31:43;;;;;;;7.63;3.05;;;;;;;16.67;47.46;98212.34;5090321;28;20081;-71
2021/05/16 10:34:23;;;;;;;4.53;2.30;;;;;;;16.56;48.50;98217.88;5089161;28;20021;-69
2021/05/16 10:36:49;;;;;;;6.25;2.42;;;;;;;16.21;50.14;98217.69;5090132;28;20119;-70
2021/05/16 10:39:34;;;;;;;7.93;3.15;;;;;;;16.56;49.73;98223.19;5090509;28;20115;-71
2021/05/16 10:42:19;;;;;;;6.13;2.65;;;;;;;17.53;44.38;98227.63;5068685;28;20036;-71
2021/05/16 10:44:59;;;;;;;4.97;2.42;;;;;;;17.69;44.10;98219.72;5090953;28;20032;-70
2021/05/16 10:50:11;;;;;;;5.85;2.83;;;;;;;19.29;41.49;98208.00;5090861;28;20111;-71
2021/05/16 10:52:36;;;;;;;8.30;2.58;;;;;;;18.97;40.67;98204.38;5090302;28;20051;-71
2021/05/16 10:55:04;;;;;;;6.25;2.55;;;;;;;19.12;40.93;98201.03;5090079;28;20483;-71
2021/05/16 10:57:40;;;;;;;10.93;3.22;;;;;;;19.14;40.81;98207.03;5090055;28;20065;-70
2021/05/16 11:00:25;;;;;;;6.07;2.30;;;;;;;18.67;41.06;98203.16;5090301;28;20052;-69
2021/05/16 11:03:18;;;;;;;9.20;3.38;;;;;;;18.70;41.21;98194.81;5090077;28;20080;-70
2021/05/16 11:05:44;;;;;;;9.52;3.05;;;;;;;18.75;42.38;98197.81;5069227;28;20032;-69
2021/05/16 11:08:15;;;;;;;5.72;2.58;;;;;;;18.90;42.45;98192.69;5089969;28;20043;-70
2021/05/16 11:10:42;;;;;;;6.43;2.70;;;;;;;18.88;41.80;98192.03;5089810;28;20348;-70
2021/05/16 11:13:20;;;;;;;9.25;3.08;;;;;;;19.15;40.01;98177.50;5089686;28;20031;-71
2021/05/16 11:15:50;;;;;;;7.28;2.55;;;;;;;18.72;40.92;98181.31;5089823;28;20039;-69
2021/05/16 11:18:19;;;;;;;7.32;2.75;;;;;;;18.67;40.88;98173.81;5087347;28;20032;-69
2021/05/16 11:21:06;;;;;;;6.60;2.55;;;;;;;18.98;40.84;98176.69;5069424;28;20074;-69
2021/05/16 11:23:33;;;;;;;7.22;2.47;;;;;;;18.73;40.00;98170.50;5070709;28;20059;-70
2021/05/16 11:26:09;;;;;;;5.82;2.00;;;;;;;18.49;40.64;98176.66;5072096;28;20033;-70
2021/05/16 11:28:37;;;;;;;9.75;2.60;;;;;;;18.40;40.06;98166.94;5070171;28;20036;-70
2021/05/16 11:31:09;;;;;;;6.25;2.17;;;;;;;17.96;41.62;98162.69;5075515;28;20387;-70
2021/05/16 11:33:36;;;;;;;5.68;2.20;;;;;;;17.77;41.49;98160.25;5089176;28;20445;-71
2021/05/16 11:36:15;;;;;;;8.93;2.80;;;;;;;17.54;41.73;98170.66;5089271;28;20111;-71
2021/05/16 11:38:43;;;;;;;10.02;2.75;;;;;;;17.59;42.19;98152.38;5090202;28;20035;-71